createdAt,value
2016-04-09T00:00:52.086Z,998.05
2016-04-09T00:01:52.104Z,998.07
2016-04-09T00:02:52.138Z,998.07
2016-04-09T00:03:52.156Z,998.07
2016-04-09T00:04:52.175Z,998.1
2016-04-09T00:05:52.192Z,998.08
2016-04-09T00:06:52.211Z,998.08
2016-04-09T00:07:52.245Z,998.06
2016-04-09T00:08:52.264Z,998.09
2016-04-09T00:09:52.282Z,998.07
2016-04-09T00:10:52.300Z,998.08
2016-04-09T00:11:52.334Z,998.13
2016-04-09T00:12:52.352Z,998.09
2016-04-09T00:13:52.371Z,998.06
2016-04-09T00:14:52.389Z,998.04
2016-04-09T00:15:52.408Z,998.04
2016-04-09T00:16:52.441Z,998.04
2016-04-09T00:17:52.460Z,998.07
2016-04-09T00:18:52.477Z,998.05
2016-04-09T00:19:52.512Z,998.07
2016-04-09T00:20:52.515Z,998.09
2016-04-09T00:21:52.549Z,998.06
2016-04-09T00:22:52.567Z,998.08
2016-04-09T00:23:52.585Z,998.04
2016-04-09T00:24:52.604Z,998.03
2016-04-09T00:25:52.621Z,998.08
2016-04-09T00:26:52.656Z,998.04
2016-04-09T00:27:52.674Z,998.02
2016-04-09T00:28:52.692Z,998
2016-04-09T00:29:52.710Z,997.99
2016-04-09T00:30:52.744Z,998
2016-04-09T00:31:52.762Z,998.03
2016-04-09T00:32:52.828Z,998.03
2016-04-09T00:33:52.799Z,998
2016-04-09T00:34:52.817Z,998.01
2016-04-09T00:35:52.836Z,998.03
2016-04-09T00:36:52.854Z,997.97
2016-04-09T00:37:52.889Z,997.95
2016-04-09T00:38:52.906Z,997.93
2016-04-09T00:39:52.925Z,997.94
2016-04-09T00:40:52.943Z,997.91
2016-04-09T00:41:52.961Z,997.93
2016-04-09T00:42:52.995Z,997.91
2016-04-09T00:43:53.014Z,997.93
2016-04-09T00:44:53.033Z,997.92
2016-04-09T00:45:53.067Z,997.9
2016-04-09T00:46:53.069Z,997.89
2016-04-09T00:47:53.103Z,997.84
2016-04-09T00:48:53.121Z,997.86
2016-04-09T00:49:53.139Z,997.87
2016-04-09T00:50:53.158Z,997.88
2016-04-09T00:51:53.191Z,997.86
2016-04-09T00:52:53.194Z,997.93
2016-04-09T00:53:53.228Z,997.93
2016-04-09T00:54:53.246Z,997.91
2016-04-09T00:55:53.265Z,997.88
2016-04-09T00:56:53.282Z,997.91
2016-04-09T00:57:53.302Z,997.88
2016-04-09T00:58:53.320Z,997.89
2016-04-09T00:59:53.338Z,997.85
2016-04-09T01:00:53.373Z,997.87
2016-04-09T01:01:53.390Z,997.84
2016-04-09T01:02:53.440Z,997.82
2016-04-09T01:03:53.458Z,997.84
2016-04-09T01:04:53.461Z,997.84
2016-04-09T01:05:53.479Z,997.83
2016-04-09T01:06:53.497Z,997.85
2016-04-09T01:07:53.531Z,997.83
2016-04-09T01:08:53.533Z,997.87
2016-04-09T01:09:53.567Z,997.86
2016-04-09T01:10:53.570Z,997.89
2016-04-09T01:11:53.605Z,997.88
2016-04-09T01:12:53.623Z,997.88
2016-04-09T01:13:53.642Z,997.9
2016-04-09T01:14:53.660Z,997.9
2016-04-09T01:15:53.678Z,997.85
2016-04-09T01:16:53.696Z,997.81
2016-04-09T01:17:53.730Z,997.82
2016-04-09T01:18:53.749Z,997.82
2016-04-09T01:19:53.766Z,997.77
2016-04-09T01:20:53.786Z,997.79
2016-04-09T01:21:53.804Z,997.79
2016-04-09T01:22:53.822Z,997.8
2016-04-09T01:23:53.856Z,997.78
2016-04-09T01:24:53.874Z,997.78
2016-04-09T01:25:53.893Z,997.76
2016-04-09T01:26:53.910Z,997.75
2016-04-09T01:27:53.929Z,997.72
2016-04-09T01:28:53.948Z,997.73
2016-04-09T01:29:53.981Z,997.76
2016-04-09T01:30:53.999Z,997.75
2016-04-09T01:31:54.017Z,997.76
2016-04-09T01:32:54.051Z,997.77
2016-04-09T01:33:54.054Z,997.74
2016-04-09T01:34:54.073Z,997.7
2016-04-09T01:35:54.107Z,997.7
2016-04-09T01:36:54.116Z,997.73
2016-04-09T01:37:54.134Z,997.73
2016-04-09T01:38:54.152Z,997.71
2016-04-09T01:39:54.170Z,997.72
2016-04-09T01:40:54.189Z,997.73
2016-04-09T01:41:54.223Z,997.73
2016-04-09T01:42:54.240Z,997.67
2016-04-09T01:43:54.259Z,997.71
2016-04-09T01:44:54.277Z,997.74
2016-04-09T01:45:54.295Z,997.73
2016-04-09T01:46:54.330Z,997.74
2016-04-09T01:47:54.364Z,997.73
2016-04-09T01:48:54.367Z,997.71
2016-04-09T01:49:54.401Z,997.72
2016-04-09T01:50:54.403Z,997.74
2016-04-09T01:51:54.422Z,997.76
2016-04-09T01:52:54.439Z,997.78
2016-04-09T01:53:54.458Z,997.75
2016-04-09T01:54:54.477Z,997.77
2016-04-09T01:55:54.494Z,997.77
2016-04-09T01:56:54.528Z,997.73
2016-04-09T01:57:54.546Z,997.73
2016-04-09T01:58:54.565Z,997.73
2016-04-09T01:59:54.583Z,997.71
2016-04-09T02:00:54.602Z,997.71
2016-04-09T02:01:54.621Z,997.73
2016-04-09T02:02:54.638Z,997.7
2016-04-09T02:03:54.657Z,997.71
2016-04-09T02:04:54.690Z,997.73
2016-04-09T02:05:54.709Z,997.67
2016-04-09T02:06:54.727Z,997.67
2016-04-09T02:07:54.745Z,997.71
2016-04-09T02:08:54.779Z,997.69
2016-04-09T02:09:54.797Z,997.72
2016-04-09T02:10:54.800Z,997.71
2016-04-09T02:11:54.834Z,997.71
2016-04-09T02:12:54.853Z,997.72
2016-04-09T02:13:54.870Z,997.73
2016-04-09T02:14:54.890Z,997.72
2016-04-09T02:15:54.908Z,997.7
2016-04-09T02:16:54.926Z,997.7
2016-04-09T02:17:54.945Z,997.73
2016-04-09T02:18:54.962Z,997.77
2016-04-09T02:19:54.997Z,997.8
2016-04-09T02:20:55.014Z,997.77
2016-04-09T02:21:55.033Z,997.75
2016-04-09T02:22:55.052Z,997.75
2016-04-09T02:23:55.070Z,997.77
2016-04-09T02:24:55.089Z,997.76
2016-04-09T02:25:55.106Z,997.73
2016-04-09T02:26:55.141Z,997.69
2016-04-09T02:27:55.159Z,997.7
2016-04-09T02:28:55.177Z,997.69
2016-04-09T02:29:55.196Z,997.67
2016-04-09T02:30:55.213Z,997.67
2016-04-09T02:31:55.232Z,997.69
2016-04-09T02:32:55.249Z,997.7
2016-04-09T02:33:55.268Z,997.67
2016-04-09T02:34:55.287Z,997.67
2016-04-09T02:35:55.320Z,997.67
2016-04-09T02:36:55.323Z,997.7
2016-04-09T02:37:55.342Z,997.67
2016-04-09T02:38:55.376Z,997.66
2016-04-09T02:39:55.394Z,997.66
2016-04-09T02:40:55.413Z,997.68
2016-04-09T02:41:55.431Z,997.68
2016-04-09T02:42:55.449Z,997.67
2016-04-09T02:43:55.467Z,997.68
2016-04-09T02:44:55.501Z,997.68
2016-04-09T02:45:55.504Z,997.65
2016-04-09T02:46:55.537Z,997.63
2016-04-09T02:47:55.556Z,997.62
2016-04-09T02:48:55.575Z,997.62
2016-04-09T02:49:55.593Z,997.6
2016-04-09T02:50:55.611Z,997.61
2016-04-09T02:51:55.630Z,997.61
2016-04-09T02:52:55.648Z,997.63
2016-04-09T02:53:55.666Z,997.61
2016-04-09T02:54:55.684Z,997.63
2016-04-09T02:55:55.718Z,997.65
2016-04-09T02:56:55.736Z,997.62
2016-04-09T02:57:55.755Z,997.63
2016-04-09T02:58:55.773Z,997.62
2016-04-09T02:59:55.792Z,997.67
2016-04-09T03:00:55.810Z,997.63
2016-04-09T03:01:55.828Z,997.59
2016-04-09T03:02:55.846Z,997.62
2016-04-09T03:03:55.865Z,997.64
2016-04-09T03:04:55.883Z,997.63
2016-04-09T03:05:55.917Z,997.64
2016-04-09T03:06:55.920Z,997.62
2016-04-09T03:07:55.954Z,997.6
2016-04-09T03:08:55.971Z,997.57
2016-04-09T03:09:55.990Z,997.6
2016-04-09T03:10:56.009Z,997.58
2016-04-09T03:11:56.026Z,997.57
2016-04-09T03:12:56.045Z,997.57
2016-04-09T03:13:56.064Z,997.57
2016-04-09T03:14:56.082Z,997.57
2016-04-09T03:15:56.101Z,997.58
2016-04-09T03:16:56.118Z,997.59
2016-04-09T03:17:56.153Z,997.57
2016-04-09T03:18:56.170Z,997.57
2016-04-09T03:19:56.189Z,997.57
2016-04-09T03:20:56.208Z,997.59
2016-04-09T03:21:56.225Z,997.57
2016-04-09T03:22:56.244Z,997.57
2016-04-09T03:23:56.261Z,997.59
2016-04-09T03:24:56.280Z,997.6
2016-04-09T03:25:56.299Z,997.57
2016-04-09T03:26:56.317Z,997.58
2016-04-09T03:27:56.336Z,997.57
2016-04-09T03:28:56.354Z,997.58
2016-04-09T03:29:56.388Z,997.58
2016-04-09T03:30:56.406Z,997.62
2016-04-09T03:31:56.424Z,997.56
2016-04-09T03:32:56.443Z,997.61
2016-04-09T03:33:56.461Z,997.59
2016-04-09T03:34:56.479Z,997.64
2016-04-09T03:35:56.499Z,997.66
2016-04-09T03:36:56.516Z,997.63
2016-04-09T03:37:56.535Z,997.62
2016-04-09T03:38:56.553Z,997.6
2016-04-09T03:39:56.587Z,997.61
2016-04-09T03:40:56.605Z,997.62
2016-04-09T03:41:56.623Z,997.59
2016-04-09T03:42:56.626Z,997.58
2016-04-09T03:43:56.660Z,997.58
2016-04-09T03:44:56.678Z,997.58
2016-04-09T03:45:56.696Z,997.57
2016-04-09T03:46:56.714Z,997.62
2016-04-09T03:47:56.733Z,997.67
2016-04-09T03:48:56.751Z,997.68
2016-04-09T03:49:56.770Z,997.69
2016-04-09T03:50:56.789Z,997.67
2016-04-09T03:51:56.806Z,997.66
2016-04-09T03:52:56.825Z,997.66
2016-04-09T03:53:56.842Z,997.64
2016-04-09T03:54:56.861Z,997.66
2016-04-09T03:55:56.880Z,997.67
2016-04-09T03:56:56.913Z,997.71
2016-04-09T03:57:56.932Z,997.7
2016-04-09T03:58:56.949Z,997.75
2016-04-09T03:59:56.968Z,997.77
2016-04-09T04:00:56.986Z,997.75
2016-04-09T04:01:57.005Z,997.7
2016-04-09T04:02:57.024Z,997.74
2016-04-09T04:03:57.042Z,997.72
2016-04-09T04:04:57.060Z,997.7
2016-04-09T04:05:57.079Z,997.72
2016-04-09T04:06:57.097Z,997.68
2016-04-09T04:07:57.115Z,997.68
2016-04-09T04:08:57.133Z,997.71
2016-04-09T04:09:57.151Z,997.68
2016-04-09T04:10:57.170Z,997.67
2016-04-09T04:11:57.188Z,997.68
2016-04-09T04:12:57.223Z,997.66
2016-04-09T04:13:57.241Z,997.69
2016-04-09T04:14:57.259Z,997.69
2016-04-09T04:15:57.277Z,997.69
2016-04-09T04:16:57.295Z,997.63
2016-04-09T04:17:57.314Z,997.64
2016-04-09T04:18:57.332Z,997.63
2016-04-09T04:19:57.350Z,997.67
2016-04-09T04:20:57.369Z,997.7
2016-04-09T04:21:57.386Z,997.7
2016-04-09T04:22:57.405Z,997.69
2016-04-09T04:23:57.423Z,997.74
2016-04-09T04:24:57.441Z,997.75
2016-04-09T04:25:57.476Z,997.77
2016-04-09T04:26:57.478Z,997.77
2016-04-09T04:27:57.513Z,997.81
2016-04-09T04:28:57.516Z,997.8
2016-04-09T04:29:57.534Z,997.81
2016-04-09T04:30:57.552Z,997.8
2016-04-09T04:31:57.586Z,997.78
2016-04-09T04:32:57.604Z,997.77
2016-04-09T04:33:57.622Z,997.77
2016-04-09T04:34:57.640Z,997.75
2016-04-09T04:35:57.659Z,997.75
2016-04-09T04:36:57.677Z,997.78
2016-04-09T04:37:57.695Z,997.78
2016-04-09T04:38:57.714Z,997.8
2016-04-09T04:39:57.732Z,997.77
2016-04-09T04:40:57.751Z,997.78
2016-04-09T04:41:57.769Z,997.76
2016-04-09T04:42:57.787Z,997.74
2016-04-09T04:43:57.806Z,997.74
2016-04-09T04:44:57.823Z,997.75
2016-04-09T04:45:57.842Z,997.74
2016-04-09T04:46:57.860Z,997.7
2016-04-09T04:47:57.878Z,997.72
2016-04-09T04:48:57.897Z,997.73
2016-04-09T04:49:57.931Z,997.75
2016-04-09T04:50:57.950Z,997.76
2016-04-09T04:51:57.968Z,997.71
2016-04-09T04:52:57.986Z,997.76
2016-04-09T04:53:58.004Z,997.79
2016-04-09T04:54:58.022Z,997.76
2016-04-09T04:55:58.041Z,997.84
2016-04-09T04:56:58.059Z,997.82
2016-04-09T04:57:58.077Z,997.84
2016-04-09T04:58:58.096Z,997.81
2016-04-09T04:59:58.114Z,997.82
2016-04-09T05:00:58.132Z,997.81
2016-04-09T05:01:58.151Z,997.78
2016-04-09T05:02:58.169Z,997.79
2016-04-09T05:03:58.188Z,997.83
2016-04-09T05:04:58.206Z,997.79
2016-04-09T05:05:58.224Z,997.78
2016-04-09T05:06:58.243Z,997.79
2016-04-09T05:07:58.260Z,997.82
2016-04-09T05:08:58.279Z,997.8
2016-04-09T05:09:58.297Z,997.81
2016-04-09T05:10:58.315Z,997.79
2016-04-09T05:11:58.334Z,997.79
2016-04-09T05:12:58.383Z,997.81
2016-04-09T05:13:58.370Z,997.86
2016-04-09T05:14:58.389Z,997.86
2016-04-09T05:15:58.407Z,997.83
2016-04-09T05:16:58.441Z,997.81
2016-04-09T05:17:58.443Z,997.82
2016-04-09T05:18:58.478Z,997.8
2016-04-09T05:19:58.495Z,997.81
2016-04-09T05:20:58.514Z,997.83
2016-04-09T05:21:58.533Z,997.81
2016-04-09T05:22:58.551Z,997.84
2016-04-09T05:23:58.569Z,997.84
2016-04-09T05:24:58.588Z,997.87
2016-04-09T05:25:58.606Z,997.9
2016-04-09T05:26:58.625Z,997.84
2016-04-09T05:27:58.643Z,997.85
2016-04-09T05:28:58.661Z,997.88
2016-04-09T05:29:58.680Z,997.88
2016-04-09T05:30:58.697Z,997.87
2016-04-09T05:31:58.716Z,997.9
2016-04-09T05:32:58.734Z,997.9
2016-04-09T05:33:58.752Z,997.91
2016-04-09T05:34:58.771Z,997.89
2016-04-09T05:35:58.788Z,997.88
2016-04-09T05:36:58.807Z,997.93
2016-04-09T05:37:58.826Z,997.89
2016-04-09T05:38:58.844Z,997.89
2016-04-09T05:39:58.878Z,997.92
2016-04-09T05:40:58.880Z,997.92
2016-04-09T05:41:58.899Z,997.91
2016-04-09T05:42:58.917Z,997.9
2016-04-09T05:43:58.935Z,997.91
2016-04-09T05:44:58.954Z,997.89
2016-04-09T05:45:58.987Z,997.9
2016-04-09T05:46:58.990Z,997.9
2016-04-09T05:47:59.008Z,997.91
2016-04-09T05:48:59.026Z,997.9
2016-04-09T05:49:59.061Z,997.84
2016-04-09T05:50:59.079Z,997.87
2016-04-09T05:51:59.097Z,997.92
2016-04-09T05:52:59.116Z,997.9
2016-04-09T05:53:59.134Z,997.93
2016-04-09T05:54:59.153Z,997.96
2016-04-09T05:55:59.170Z,997.95
2016-04-09T05:56:59.190Z,997.96
2016-04-09T05:57:59.208Z,997.95
2016-04-09T05:58:59.226Z,997.96
2016-04-09T05:59:59.244Z,997.95
2016-04-09T06:00:59.263Z,997.96
2016-04-09T06:01:59.281Z,997.95
2016-04-09T06:02:59.299Z,997.98
2016-04-09T06:03:59.317Z,998
2016-04-09T06:04:59.335Z,998.02
2016-04-09T06:05:59.354Z,998.02
2016-04-09T06:06:59.372Z,998.02
2016-04-09T06:07:59.391Z,998.08
2016-04-09T06:08:59.410Z,998.07
2016-04-09T06:09:59.427Z,998.06
2016-04-09T06:10:59.446Z,998.08
2016-04-09T06:11:59.463Z,998.08
2016-04-09T06:12:59.482Z,998.06
2016-04-09T06:13:59.516Z,998.05
2016-04-09T06:14:59.534Z,998.04
2016-04-09T06:15:59.538Z,998.08
2016-04-09T06:16:59.571Z,998.04
2016-04-09T06:17:59.574Z,998.06
2016-04-09T06:19:02.608Z,998.03
2016-04-09T06:19:59.626Z,998.04
2016-04-09T06:20:59.644Z,998.06
2016-04-09T06:21:59.662Z,998.05
2016-04-09T06:22:59.681Z,998.09
2016-04-09T06:23:59.699Z,998.08
2016-04-09T06:24:59.717Z,998.07
2016-04-09T06:25:59.737Z,998.11
2016-04-09T06:26:59.754Z,998.09
2016-04-09T06:27:59.773Z,998.08
2016-04-09T06:28:59.791Z,998.08
2016-04-09T06:29:59.809Z,998.11
2016-04-09T06:30:59.828Z,998.12
2016-04-09T06:31:59.846Z,998.11
2016-04-09T06:32:59.864Z,998.12
2016-04-09T06:33:59.882Z,998.11
2016-04-09T06:34:59.901Z,998.14
2016-04-09T06:35:59.919Z,998.15
2016-04-09T06:36:59.938Z,998.17
2016-04-09T06:37:59.956Z,998.17
2016-04-09T06:38:59.974Z,998.19
2016-04-09T06:39:59.993Z,998.18
2016-04-09T06:41:00.010Z,998.18
2016-04-09T06:42:00.030Z,998.19
2016-04-09T06:43:00.047Z,998.18
2016-04-09T06:44:00.066Z,998.17
2016-04-09T06:45:00.084Z,998.2
2016-04-09T06:46:00.118Z,998.17
2016-04-09T06:47:00.120Z,998.17
2016-04-09T06:48:00.154Z,998.18
2016-04-09T06:49:00.173Z,998.18
2016-04-09T06:50:00.191Z,998.17
2016-04-09T06:51:00.210Z,998.15
2016-04-09T06:52:00.228Z,998.15
2016-04-09T06:53:00.246Z,998.17
2016-04-09T06:54:00.308Z,998.17
2016-04-09T06:55:00.370Z,998.16
2016-04-09T06:56:00.433Z,998.23
2016-04-09T06:57:00.496Z,998.15
2016-04-09T06:58:00.558Z,998.17
2016-04-09T06:59:00.594Z,998.2
2016-04-09T07:00:00.628Z,998.19
2016-04-09T07:01:00.662Z,998.17
2016-04-09T07:02:00.696Z,998.16
2016-04-09T07:03:00.731Z,998.16
2016-04-09T07:04:00.755Z,998.18
2016-04-09T07:05:00.794Z,998.17
2016-04-09T07:06:00.818Z,998.19
2016-04-09T07:07:00.843Z,998.16
2016-04-09T07:08:00.866Z,998.19
2016-04-09T07:09:00.887Z,998.18
2016-04-09T07:10:00.908Z,998.18
2016-04-09T07:11:00.928Z,998.14
2016-04-09T07:12:00.949Z,998.17
2016-04-09T07:13:00.969Z,998.18
2016-04-09T07:14:00.988Z,998.18
2016-04-09T07:15:01.009Z,998.16
2016-04-09T07:16:01.027Z,998.18
2016-04-09T07:17:01.047Z,998.19
2016-04-09T07:18:01.081Z,998.18
2016-04-09T07:19:01.084Z,998.2
2016-04-09T07:20:01.118Z,998.24
2016-04-09T07:21:01.136Z,998.22
2016-04-09T07:22:01.155Z,998.27
2016-04-09T07:23:01.188Z,998.27
2016-04-09T07:24:01.191Z,998.26
2016-04-09T07:25:01.209Z,998.22
2016-04-09T07:26:01.227Z,998.23
2016-04-09T07:27:01.246Z,998.22
2016-04-09T07:28:01.280Z,998.25
2016-04-09T07:29:01.283Z,998.23
2016-04-09T07:30:01.316Z,998.29
2016-04-09T07:31:01.335Z,998.22
2016-04-09T07:32:01.353Z,998.23
2016-04-09T07:33:01.371Z,998.24
2016-04-09T07:34:01.390Z,998.21
2016-04-09T07:35:01.439Z,998.22
2016-04-09T07:36:01.426Z,998.25
2016-04-09T07:37:01.445Z,998.24
2016-04-09T07:38:01.478Z,998.22
2016-04-09T07:39:01.497Z,998.22
2016-04-09T07:40:01.515Z,998.26
2016-04-09T07:41:01.534Z,998.23
2016-04-09T07:42:01.551Z,998.24
2016-04-09T07:43:01.570Z,998.22
2016-04-09T07:44:01.589Z,998.25
2016-04-09T07:45:01.607Z,998.27
2016-04-09T07:46:01.626Z,998.29
2016-04-09T07:47:01.675Z,998.28
2016-04-09T07:48:01.678Z,998.3
2016-04-09T07:49:01.695Z,998.28
2016-04-09T07:50:01.714Z,998.26
2016-04-09T07:51:01.733Z,998.25
2016-04-09T07:52:01.750Z,998.28
2016-04-09T07:53:01.769Z,998.23
2016-04-09T07:54:01.787Z,998.24
2016-04-09T07:55:01.805Z,998.24
2016-04-09T07:56:01.839Z,998.23
2016-04-09T07:57:01.858Z,998.3
2016-04-09T07:58:01.876Z,998.24
2016-04-09T07:59:01.894Z,998.27
2016-04-09T08:00:01.913Z,998.29
2016-04-09T08:01:01.931Z,998.29
2016-04-09T08:02:01.949Z,998.33
2016-04-09T08:03:01.982Z,998.32
2016-04-09T08:04:02.001Z,998.32
2016-04-09T08:05:02.020Z,998.29
2016-04-09T08:06:02.038Z,998.25
2016-04-09T08:07:02.057Z,998.27
2016-04-09T08:08:02.075Z,998.27
2016-04-09T08:09:02.093Z,998.25
2016-04-09T08:10:02.127Z,998.24
2016-04-09T08:11:02.146Z,998.25
2016-04-09T08:12:02.164Z,998.3
2016-04-09T08:13:02.182Z,998.26
2016-04-09T08:14:02.201Z,998.31
2016-04-09T08:15:02.234Z,998.32
2016-04-09T08:16:02.253Z,998.29
2016-04-09T08:17:02.271Z,998.3
2016-04-09T08:18:02.289Z,998.29
2016-04-09T08:19:02.308Z,998.26
2016-04-09T08:20:02.326Z,998.28
2016-04-09T08:21:02.360Z,998.23
2016-04-09T08:22:02.378Z,998.24
2016-04-09T08:23:02.397Z,998.25
2016-04-09T08:24:02.415Z,998.22
2016-04-09T08:25:02.433Z,998.23
2016-04-09T08:26:02.467Z,998.24
2016-04-09T08:27:02.486Z,998.21
2016-04-09T08:28:02.504Z,998.21
2016-04-09T08:29:02.522Z,998.19
2016-04-09T08:30:02.540Z,998.22
2016-04-09T08:31:02.574Z,998.2
2016-04-09T08:32:02.593Z,998.17
2016-04-09T08:33:02.611Z,998.15
2016-04-09T08:34:02.629Z,998.17
2016-04-09T08:35:02.663Z,998.18
2016-04-09T08:36:02.681Z,998.14
2016-04-09T08:37:02.700Z,998.16
2016-04-09T08:38:02.718Z,998.17
2016-04-09T08:39:02.737Z,998.15
2016-04-09T08:40:02.770Z,998.13
2016-04-09T08:41:02.789Z,998.13
2016-04-09T08:42:02.807Z,998.18
2016-04-09T08:43:02.841Z,998.14
2016-04-09T08:44:02.843Z,998.12
2016-04-09T08:45:02.878Z,998.1
2016-04-09T08:46:02.896Z,998.12
2016-04-09T08:47:02.914Z,998.13
2016-04-09T08:48:02.933Z,998.07
2016-04-09T08:49:03.029Z,998.01
2016-04-09T08:50:02.985Z,998
2016-04-09T08:51:03.003Z,998.04
2016-04-09T08:52:03.037Z,998.03
2016-04-09T08:53:03.056Z,998.01
2016-04-09T08:54:03.074Z,998.03
2016-04-09T08:55:03.092Z,998
2016-04-09T08:56:03.111Z,998.02
2016-04-09T08:57:03.144Z,998.06
2016-04-09T08:58:03.163Z,998.04
2016-04-09T08:59:03.181Z,998.06
2016-04-09T09:00:03.199Z,998.09
2016-04-09T09:01:03.232Z,998.07
2016-04-09T09:02:03.252Z,998.04
2016-04-09T09:03:03.269Z,998.05
2016-04-09T09:04:03.304Z,998.06
2016-04-09T09:05:03.322Z,998.05
2016-04-09T09:06:03.341Z,998.07
2016-04-09T09:07:03.359Z,998.03
2016-04-09T09:08:03.394Z,998.04
2016-04-09T09:09:03.411Z,998.05
2016-04-09T09:10:03.430Z,998.07
2016-04-09T09:11:03.449Z,998.06
2016-04-09T09:12:03.483Z,998.09
2016-04-09T09:13:03.516Z,998.08
2016-04-09T09:14:03.519Z,998.06
2016-04-09T09:15:03.538Z,998.13
2016-04-09T09:16:03.571Z,998.1
2016-04-09T09:17:03.590Z,998.15
2016-04-09T09:18:03.607Z,998.14
2016-04-09T09:19:03.642Z,998.08
2016-04-09T09:20:03.660Z,998.1
2016-04-09T09:21:03.678Z,998.12
2016-04-09T09:22:03.712Z,998.07
2016-04-09T09:23:03.731Z,998.07
2016-04-09T09:24:03.749Z,998.13
2016-04-09T09:25:03.783Z,998.05
2016-04-09T09:26:03.801Z,998.02
2016-04-09T09:27:03.820Z,997.97
2016-04-09T09:28:03.869Z,998.01
2016-04-09T09:29:03.872Z,998.04
2016-04-09T09:30:03.890Z,998.02
2016-04-09T09:31:03.925Z,998.02
2016-04-09T09:32:03.942Z,998.04
2016-04-09T09:33:03.976Z,998.03
2016-04-09T09:34:03.995Z,998.04
2016-04-09T09:35:04.013Z,997.99
2016-04-09T09:36:04.031Z,998.05
2016-04-09T09:37:04.066Z,998.05
2016-04-09T09:38:04.083Z,998.05
2016-04-09T09:39:04.102Z,998
2016-04-09T09:40:04.136Z,998.02
2016-04-09T09:41:04.154Z,998.07
2016-04-09T09:42:04.172Z,998.08
2016-04-09T09:43:04.207Z,998.05
2016-04-09T09:44:04.224Z,998.09
2016-04-09T09:45:04.243Z,998.14
2016-04-09T09:46:04.277Z,998.09
2016-04-09T09:47:04.296Z,998.07
2016-04-09T09:48:04.313Z,998.11
2016-04-09T09:49:04.337Z,998.11
2016-04-09T09:50:04.358Z,998.12
2016-04-09T09:51:04.389Z,998.11
2016-04-09T09:52:04.411Z,998.1
2016-04-09T09:53:04.437Z,998.07
2016-04-09T09:54:04.549Z,998.05
2016-04-09T09:55:04.474Z,998.03
2016-04-09T09:56:04.508Z,998.02
2016-04-09T09:57:04.527Z,998.03
2016-04-09T09:58:04.560Z,998.03
2016-04-09T09:59:04.579Z,998.02
2016-04-09T10:00:04.596Z,998.02
2016-04-09T10:01:04.632Z,997.98
2016-04-09T10:02:04.650Z,997.97
2016-04-09T10:03:04.669Z,997.99
2016-04-09T10:04:04.703Z,998.03
2016-04-09T10:05:04.721Z,998.02
2016-04-09T10:06:04.755Z,998
2016-04-09T10:07:04.772Z,998.03
2016-04-09T10:08:04.808Z,998.03
2016-04-09T10:09:04.825Z,998.03
2016-04-09T10:10:04.844Z,998.04
2016-04-09T10:11:04.878Z,997.98
2016-04-09T10:12:04.896Z,997.97
2016-04-09T10:13:04.929Z,997.97
2016-04-09T10:14:04.948Z,998.01
2016-04-09T10:15:04.967Z,997.99
2016-04-09T10:16:05.001Z,998
2016-04-09T10:17:05.018Z,997.97
2016-04-09T10:18:05.053Z,997.96
2016-04-09T10:19:05.087Z,997.94
2016-04-09T10:20:05.105Z,997.96
2016-04-09T10:21:05.124Z,997.93
2016-04-09T10:22:05.142Z,997.94
2016-04-09T10:23:05.176Z,997.97
2016-04-09T10:24:05.209Z,997.95
2016-04-09T10:25:05.228Z,997.93
2016-04-09T10:26:05.262Z,997.91
2016-04-09T10:27:05.281Z,997.92
2016-04-09T10:28:05.299Z,997.99
2016-04-09T10:29:05.317Z,997.94
2016-04-09T10:30:05.350Z,997.93
2016-04-09T10:31:05.369Z,997.91
2016-04-09T10:32:05.403Z,997.95
2016-04-09T10:33:05.422Z,997.9
2016-04-09T10:34:05.470Z,997.88
2016-04-09T10:35:05.473Z,997.84
2016-04-09T10:36:05.508Z,997.85
2016-04-09T10:37:05.526Z,997.89
2016-04-09T10:38:05.561Z,997.92
2016-04-09T10:39:05.578Z,997.93
2016-04-09T10:40:05.611Z,997.91
2016-04-09T10:41:05.631Z,997.89
2016-04-09T10:42:05.664Z,997.93
2016-04-09T10:43:05.683Z,997.91
2016-04-09T10:44:05.717Z,997.9
2016-04-09T10:45:05.735Z,997.93
2016-04-09T10:46:05.753Z,997.91
2016-04-09T10:47:05.787Z,997.89
2016-04-09T10:48:05.821Z,997.85
2016-04-09T10:49:05.949Z,997.85
2016-04-09T10:50:05.874Z,997.86
2016-04-09T10:51:05.892Z,997.82
2016-04-09T10:52:05.910Z,997.83
2016-04-09T10:53:05.943Z,997.82
2016-04-09T10:54:05.962Z,997.83
2016-04-09T10:55:05.996Z,997.82
2016-04-09T10:56:06.015Z,997.83
2016-04-09T10:57:06.049Z,997.82
2016-04-09T10:58:06.176Z,997.84
2016-04-09T10:59:06.303Z,997.84
2016-04-09T11:00:06.119Z,997.78
2016-04-09T11:01:06.153Z,997.77
2016-04-09T11:02:06.171Z,997.77
2016-04-09T11:03:06.206Z,997.75
2016-04-09T11:04:06.224Z,997.76
2016-04-09T11:05:06.258Z,997.74
2016-04-09T11:06:06.291Z,997.75
2016-04-09T11:07:06.309Z,997.8
2016-04-09T11:08:06.344Z,997.77
2016-04-09T11:09:06.362Z,997.77
2016-04-09T11:10:06.396Z,997.75
2016-04-09T11:11:06.415Z,997.74
2016-04-09T11:12:06.447Z,997.71
2016-04-09T11:13:06.466Z,997.74
2016-04-09T11:14:06.500Z,997.75
2016-04-09T11:15:06.519Z,997.71
2016-04-09T11:16:06.553Z,997.74
2016-04-09T11:17:06.571Z,997.72
2016-04-09T11:18:06.605Z,997.76
2016-04-09T11:19:06.623Z,997.79
2016-04-09T11:20:06.657Z,997.73
2016-04-09T11:21:06.676Z,997.72
2016-04-09T11:22:06.710Z,997.76
2016-04-09T11:23:06.727Z,997.72
2016-04-09T11:24:06.762Z,997.73
2016-04-09T11:25:06.780Z,997.7
2016-04-09T11:26:06.815Z,997.7
2016-04-09T11:27:06.848Z,997.7
2016-04-09T11:28:06.866Z,997.67
2016-04-09T11:29:06.901Z,997.67
2016-04-09T11:30:06.918Z,997.65
2016-04-09T11:31:06.937Z,997.64
2016-04-09T11:32:06.971Z,997.67
2016-04-09T11:33:06.989Z,997.66
2016-04-09T11:34:07.023Z,997.7
2016-04-09T11:35:07.056Z,997.66
2016-04-09T11:36:07.076Z,997.65
2016-04-09T11:37:07.109Z,997.67
2016-04-09T11:38:07.127Z,997.66
2016-04-09T11:39:07.161Z,997.65
2016-04-09T11:40:07.180Z,997.63
2016-04-09T11:41:07.213Z,997.63
2016-04-09T11:42:07.247Z,997.64
2016-04-09T11:43:07.281Z,997.66
2016-04-09T11:44:07.300Z,997.65
2016-04-09T11:45:07.318Z,997.66
2016-04-09T11:46:07.336Z,997.64
2016-04-09T11:47:07.371Z,997.64
2016-04-09T11:48:07.404Z,997.63
2016-04-09T11:49:07.422Z,997.63
2016-04-09T11:50:07.457Z,997.63
2016-04-09T11:51:07.474Z,997.63
2016-04-09T11:52:07.509Z,997.66
2016-04-09T11:53:07.527Z,997.62
2016-04-09T11:54:07.560Z,997.66
2016-04-09T11:55:07.579Z,997.64
2016-04-09T11:56:07.613Z,997.62
2016-04-09T11:57:07.631Z,997.61
2016-04-09T11:58:07.665Z,997.58
2016-04-09T11:59:07.699Z,997.59
2016-04-09T12:00:07.718Z,997.56
2016-04-09T12:01:07.751Z,997.59
2016-04-09T12:02:07.770Z,997.57
2016-04-09T12:03:07.804Z,997.59
2016-04-09T12:04:07.822Z,997.64
2016-04-09T12:05:07.856Z,997.58
2016-04-09T12:06:07.875Z,997.59
2016-04-09T12:07:07.908Z,997.55
2016-04-09T12:08:07.927Z,997.57
2016-04-09T12:09:07.961Z,997.54
2016-04-09T12:10:07.994Z,997.55
2016-04-09T12:11:08.013Z,997.54
2016-04-09T12:12:08.047Z,997.56
2016-04-09T12:13:08.065Z,997.58
2016-04-09T12:14:08.099Z,997.57
2016-04-09T12:15:08.117Z,997.57
2016-04-09T12:16:08.152Z,997.56
2016-04-09T12:17:08.185Z,997.56
2016-04-09T12:18:08.204Z,997.58
2016-04-09T12:19:08.238Z,997.58
2016-04-09T12:20:08.255Z,997.55
2016-04-09T12:21:08.290Z,997.57
2016-04-09T12:22:08.308Z,997.54
2016-04-09T12:23:08.342Z,997.57
2016-04-09T12:24:08.360Z,997.56
2016-04-09T12:25:08.394Z,997.58
2016-04-09T12:26:08.428Z,997.57
2016-04-09T12:27:08.446Z,997.55
2016-04-09T12:28:08.481Z,997.51
2016-04-09T12:29:08.499Z,997.54
2016-04-09T12:30:08.532Z,997.54
2016-04-09T12:31:08.551Z,997.52
2016-04-09T12:32:08.585Z,997.48